Etusivu
METAR-TAF:

METAR-TAF

Lentoasemat :

Jyväskylän lentoasema

Jyväskylä, Suomi

Leveyspiiri: 62-24N, Pituuspiiri: 025-41E, korkeus merenpinnasta: 141 m

Tämänhetkinen sää

Tämä raportti tehtiin 10 minuuttia sitten, kello 21.20 UTC
Tuuli 2 kn pohjoisen/luoteesta
Lämpötila 3°C
Kosteus 70%
Ilmanpaine 1026 hPa
Näkyvyys 10 km tai enemmän
ei pilviä alle 1500 m:ssä eikä cumulonimbus-pilviä

METAR: EFJY 242120Z AUTO 33002KT CAVOK 03/M02 Q1026

Aika: 00:30 (21:30 UTC)

Sääennuste

Tämä raportti tehtiin 1 tunti ja 6 minuuttia sitten, kello 20.24 UTC
Ennuste voimassa 24. päivästä klo 21 UTC - 25. päivään klo 21 UTC
Tuuli 2 kn eri suunnista
Näkyvyys 10 km tai enemmän
ei pilviä alle 1500 m:ssä eikä cumulonimbus-pilviä

TAF: EFJY 242024Z 2421/2521 VRB02KT CAVOK

Säähavainnot ja -ennusteet yli 4000 lentoasemalta (METAR- ja TAF-raportit).

Käytössä olevat sääasemat on merkitty karttaan keltaisilla ja punaisilla pisteillä.

Aseta hiiri pisteen päälle nähdäksesi sääaseman nimen.

Klikkaa sitten nähdäksesi säähavainnot ja -ennusteet.

Kartan vaihtaminen: klikkaa mustalla rastilla varustettuja vihreitä pisteitä, niin voit zoomata sisään; viivalla varustettua vihreää pistettä, niin voit zoomata ulos tai vihreitä nuolia, niin pääset viereisille kartoille.


METAR-TAF: